Time;durP1;ratioP1;P1;durP2;ratioP2;P2;SDS_P1;SDS_P2;PMS_P1;PMS_P2;Temp;Humidity;BMP_temperature;BMP_pressure;BME280_temperature;BME280_humidity;BME280_pressure;Samples;Min_cycle;Max_cycle;Signal;HPM_P1;HPM_P2
2022/01/18 00:00:08;;;;;;;3.78;2.80;;;;;;;20.59;30.99;96496.03;5147848;27;20041;-61
2022/01/18 00:02:34;;;;;;;5.13;3.78;;;;;;;20.58;30.97;96507.84;5150911;27;20043;-60
2022/01/18 00:04:59;;;;;;;4.45;3.00;;;;;;;20.55;31.09;96501.13;5151934;27;20050;-61
2022/01/18 00:07:25;;;;;;;4.43;3.60;;;;;;;20.59;31.05;96502.19;5151944;27;20018;-62
2022/01/18 00:09:50;;;;;;;4.38;3.58;;;;;;;20.59;31.14;96512.16;5151900;27;20027;-62
2022/01/18 00:12:43;;;;;;;6.13;3.38;;;;;;;20.56;31.03;96518.03;5151892;27;20029;-61
2022/01/18 00:15:40;;;;;;;5.20;3.47;;;;;;;20.55;31.00;96522.59;5151683;27;20019;-61
2022/01/18 00:23:01;;;;;;;5.20;3.38;;;;;;;20.55;30.71;96538.72;5132194;27;20043;-61
2022/01/18 00:25:27;;;;;;;6.22;4.13;;;;;;;20.54;30.88;96538.97;5151643;27;20029;-61
2022/01/18 00:27:53;;;;;;;5.07;3.65;;;;;;;20.54;30.62;96552.41;5151482;27;20027;-61
2022/01/18 00:35:31;;;;;;;5.97;4.10;;;;;;;20.51;30.85;96572.53;5151636;27;20030;-61
2022/01/18 00:37:58;;;;;;;5.72;3.65;;;;;;;20.51;30.71;96577.09;5151367;27;20007;-61
2022/01/18 00:40:25;;;;;;;3.70;3.20;;;;;;;20.50;30.69;96578.97;5151161;27;20031;-61
2022/01/18 00:42:50;;;;;;;4.00;3.60;;;;;;;20.49;30.90;96573.88;5151260;27;20023;-61
2022/01/18 00:45:16;;;;;;;5.50;3.58;;;;;;;20.47;30.70;96584.84;5151344;27;20007;-60
2022/01/18 00:47:42;;;;;;;4.93;3.45;;;;;;;20.49;30.80;96592.66;5151207;27;20023;-61
2022/01/18 00:50:09;;;;;;;4.95;3.50;;;;;;;20.48;30.80;96607.16;5151201;27;20019;-60
2022/01/18 00:52:40;;;;;;;4.32;3.55;;;;;;;20.46;30.77;96603.91;5151109;27;20019;-60
2022/01/18 00:55:06;;;;;;;;;;;;;;;20.41;30.80;96608.16;5151566;27;20019;-61
2022/01/18 00:57:31;;;;;;;5.75;3.60;;;;;;;20.40;30.89;96616.50;5132899;27;20012;-61
2022/01/18 00:59:57;;;;;;;5.20;3.78;;;;;;;20.42;30.64;96619.75;5150859;27;20042;-60
2022/01/18 01:02:22;;;;;;;4.72;3.40;;;;;;;20.43;30.65;96621.38;5150888;27;20042;-60
2022/01/18 01:04:49;;;;;;;5.10;3.67;;;;;;;20.44;30.80;96633.69;5150825;27;20023;-60
2022/01/18 01:07:18;;;;;;;4.72;3.80;;;;;;;20.40;30.68;96630.72;5150588;27;20068;-61
2022/01/18 01:09:44;;;;;;;4.82;3.60;;;;;;;20.40;30.71;96641.47;5150778;27;20087;-60
2022/01/18 01:12:11;;;;;;;5.75;4.07;;;;;;;20.40;30.69;96654.88;5149645;27;20037;-61
2022/01/18 01:14:38;;;;;;;5.22;4.00;;;;;;;20.38;30.55;96651.66;5150630;27;20217;-61
2022/01/18 01:17:29;;;;;;;4.80;4.10;;;;;;;20.37;30.49;96657.28;5150181;27;20090;-63
2022/01/18 01:44:47;;;;;;;7.60;5.10;;;;;;;18.48;32.12;96706.28;5149660;27;20102;-61
2022/01/18 01:47:17;;;;;;;;;;;;;;;18.15;32.29;96716.69;5148122;27;20054;-62
2022/01/18 01:49:43;;;;;;;6.60;5.07;;;;;;;17.96;32.45;96722.19;5149997;27;19983;-62
2022/01/18 01:52:10;;;;;;;5.38;4.32;;;;;;;17.85;32.30;96731.06;5150163;27;20036;-62
2022/01/18 01:54:38;;;;;;;7.10;5.18;;;;;;;17.71;32.41;96725.16;5150462;27;20027;-62
2022/01/18 01:57:04;;;;;;;6.22;4.63;;;;;;;17.63;32.35;96734.34;5149942;27;20156;-62
2022/01/18 01:59:30;;;;;;;6.65;4.72;;;;;;;17.52;32.62;96735.19;5150469;27;20209;-62
2022/01/18 02:01:56;;;;;;;6.82;5.47;;;;;;;17.44;32.49;96743.53;5150391;27;20106;-62
2022/01/18 02:04:21;;;;;;;6.35;4.85;;;;;;;17.37;32.54;96751.69;5150418;27;20232;-62
2022/01/18 02:06:47;;;;;;;6.88;5.05;;;;;;;17.29;32.56;96750.19;5149999;27;20027;-62
2022/01/18 02:09:13;;;;;;;6.72;4.78;;;;;;;17.24;32.54;96758.88;5150218;27;20038;-63
2022/01/18 02:11:38;;;;;;;6.53;4.28;;;;;;;17.20;32.28;96775.63;5150159;27;20015;-62
2022/01/18 02:14:13;;;;;;;5.90;4.78;;;;;;;17.13;32.53;96777.59;5149950;27;20087;-63
2022/01/18 02:22:06;;;;;;;6.88;4.45;;;;;;;16.91;32.52;96797.63;5129362;28;20087;-63
2022/01/18 02:24:32;;;;;;;5.10;4.40;;;;;;;16.86;32.72;96791.34;5128538;28;20224;-63
2022/01/18 02:26:58;;;;;;;6.90;4.82;;;;;;;16.81;32.70;96801.91;5129271;28;20028;-62
2022/01/18 02:29:23;;;;;;;5.85;4.57;;;;;;;16.72;32.64;96814.75;5129311;28;20098;-62
2022/01/18 02:31:49;;;;;;;5.93;4.22;;;;;;;16.66;32.52;96818.34;5129110;28;20093;-63
2022/01/18 02:34:19;;;;;;;4.47;3.85;;;;;;;16.60;32.52;96828.06;5129141;28;20016;-62
2022/01/18 02:36:45;;;;;;;5.28;4.07;;;;;;;16.56;32.88;96841.06;5129137;28;20139;-62
2022/01/18 02:39:12;;;;;;;4.78;4.00;;;;;;;16.51;32.89;96843.56;5128853;28;20027;-62
2022/01/18 02:41:38;;;;;;;4.95;3.78;;;;;;;16.47;32.69;96856.56;5129027;28;20027;-62
2022/01/18 02:44:12;;;;;;;4.85;3.83;;;;;;;16.44;32.91;96850.88;5132154;27;20071;-63
2022/01/18 02:46:39;;;;;;;3.97;3.13;;;;;;;16.43;32.69;96865.25;5149515;27;20224;-62
2022/01/18 02:49:06;;;;;;;4.45;3.20;;;;;;;16.40;32.41;96858.47;5149427;27;20045;-62
2022/01/18 02:51:32;;;;;;;5.07;3.47;;;;;;;16.28;32.90;96863.78;5149446;27;20087;-62
2022/01/18 02:54:05;;;;;;;4.55;3.17;;;;;;;16.21;33.00;96873.69;5149241;27;20050;-62
2022/01/18 02:56:46;;;;;;;6.07;3.00;;;;;;;16.19;33.13;96894.44;5149337;27;20228;-63
2022/01/18 02:59:20;;;;;;;4.55;3.20;;;;;;;16.19;32.65;96896.31;5149191;27;20236;-63
2022/01/18 03:04:32;;;;;;;3.58;2.58;;;;;;;16.09;32.84;96900.31;5149068;27;20049;-63
2022/01/18 03:06:58;;;;;;;5.75;3.50;;;;;;;16.07;32.52;96904.22;5148938;27;20132;-62
2022/01/18 03:09:24;;;;;;;6.20;3.05;;;;;;;16.04;32.80;96900.16;5149020;27;20018;-63
2022/01/18 03:11:49;;;;;;;2.95;2.35;;;;;;;16.00;32.66;96909.63;5148929;27;20031;-63
2022/01/18 03:14:15;;;;;;;3.05;2.58;;;;;;;15.96;32.82;96925.25;5148901;27;20034;-63
2022/01/18 03:16:41;;;;;;;3.17;2.33;;;;;;;15.94;32.91;96921.19;5127229;28;20183;-62
2022/01/18 03:19:06;;;;;;;3.80;2.50;;;;;;;15.92;32.93;96940.06;5128184;28;20087;-63
2022/01/18 03:21:32;;;;;;;4.13;2.72;;;;;;;15.91;32.59;96945.63;5128236;28;20016;-63
2022/01/18 03:24:13;;;;;;;3.65;2.67;;;;;;;15.85;32.51;96950.78;5128101;28;20027;-64
2022/01/18 03:29:25;;;;;;;3.17;2.22;;;;;;;15.73;32.82;96963.16;5128250;28;20038;-63
2022/01/18 03:31:50;;;;;;;2.42;1.83;;;;;;;15.70;32.49;96967.09;5128008;28;20086;-64
2022/01/18 03:34:16;;;;;;;2.78;1.98;;;;;;;15.61;32.41;96979.03;5128208;28;20023;-64
2022/01/18 03:36:41;;;;;;;3.60;2.42;;;;;;;15.57;32.48;96992.00;5127936;28;20035;-63
2022/01/18 03:39:07;;;;;;;3.20;2.00;;;;;;;15.51;32.61;96987.50;5141550;27;20146;-63
2022/01/18 03:41:32;;;;;;;1.95;1.60;;;;;;;15.48;32.63;97003.13;5148701;28;20030;-63
2022/01/18 03:43:58;;;;;;;2.80;1.90;;;;;;;15.45;32.43;97011.53;5148655;28;20038;-63
2022/01/18 03:46:24;;;;;;;2.70;1.75;;;;;;;15.40;32.53;97026.34;5148713;28;20102;-63
2022/01/18 03:48:51;;;;;;;2.97;1.75;;;;;;;15.38;32.40;97025.72;5148084;28;20023;-63
2022/01/18 03:51:17;;;;;;;3.05;1.92;;;;;;;15.39;32.72;97032.69;5148319;28;20086;-63
2022/01/18 03:53:43;;;;;;;2.33;1.70;;;;;;;15.39;32.61;97038.03;5148519;27;20271;-63
2022/01/18 03:56:09;;;;;;;3.40;1.70;;;;;;;15.35;32.97;97028.00;5148598;28;20023;-63
2022/01/18 03:58:35;;;;;;;2.10;1.63;;;;;;;15.37;32.60;97039.25;5148312;27;20038;-63
2022/01/18 04:01:00;;;;;;;2.30;1.58;;;;;;;15.32;32.90;97049.75;5148422;28;20251;-63
2022/01/18 04:03:27;;;;;;;2.53;1.52;;;;;;;15.31;32.53;97045.44;5148730;28;20019;-63
2022/01/18 04:05:52;;;;;;;2.50;1.38;;;;;;;15.30;32.51;97055.25;5148345;28;20074;-63
2022/01/18 04:08:20;;;;;;;2.63;1.23;;;;;;;15.28;32.54;97048.53;5148092;27;20046;-63
2022/01/18 04:10:46;;;;;;;2.10;1.35;;;;;;;15.20;32.46;97065.56;5148216;28;20019;-63
2022/01/18 04:13:11;;;;;;;1.40;1.20;;;;;;;15.19;32.68;97067.44;5148260;28;20117;-63
2022/01/18 04:15:37;;;;;;;4.30;1.30;;;;;;;15.18;32.39;97078.28;5148452;28;20027;-63
2022/01/18 04:18:14;;;;;;;2.17;1.65;;;;;;;15.17;32.43;97087.28;5148178;28;20027;-63
2022/01/18 04:28:56;;;;;;;1.92;1.30;;;;;;;15.01;32.72;97117.88;5148016;28;20115;-63
2022/01/18 04:31:23;;;;;;;1.90;1.15;;;;;;;14.97;32.45;97125.47;5147906;28;20019;-63
2022/01/18 04:33:49;;;;;;;1.10;0.80;;;;;;;14.94;32.73;97121.38;5147770;28;20014;-62
2022/01/18 04:36:14;;;;;;;4.28;1.23;;;;;;;14.93;33.02;97130.38;5147889;28;20023;-62
2022/01/18 04:38:40;;;;;;;1.20;0.75;;;;;;;14.92;32.77;97139.41;5147418;28;20022;-62
2022/01/18 04:41:10;;;;;;;1.17;0.70;;;;;;;14.92;32.93;97143.91;5147698;28;20087;-63
2022/01/18 04:49:20;;;;;;;1.70;1.00;;;;;;;14.89;32.81;97177.09;5151395;27;20030;-62
2022/01/18 04:51:46;;;;;;;1.75;0.95;;;;;;;14.87;33.21;97187.13;5151481;27;20086;-62
2022/01/18 04:54:12;;;;;;;1.05;0.73;;;;;;;14.86;33.03;97209.47;5151811;27;20023;-62
2022/01/18 04:59:08;;;;;;;1.85;0.77;;;;;;;14.80;32.81;97215.59;5151263;27;20007;-62
2022/01/18 05:01:36;;;;;;;1.35;0.70;;;;;;;14.77;32.89;97232.00;5151459;27;20018;-62
2022/01/18 05:04:02;;;;;;;1.02;0.63;;;;;;;14.71;32.65;97232.81;5151234;27;20067;-62
2022/01/18 05:06:27;;;;;;;0.85;0.63;;;;;;;14.69;32.64;97238.34;5151434;27;20174;-63
2022/01/18 05:08:54;;;;;;;2.13;0.80;;;;;;;14.65;32.77;97245.88;5151129;27;20046;-62
2022/01/18 05:11:23;;;;;;;1.73;0.85;;;;;;;14.58;32.54;97254.84;5150685;27;20019;-62
2022/01/18 05:23:59;;;;;;;1.05;0.68;;;;;;;14.40;32.50;97280.22;5151383;27;20015;-63
2022/01/18 05:26:26;;;;;;;1.88;0.93;;;;;;;14.37;32.80;97293.09;5150677;27;20060;-62
2022/01/18 05:28:51;;;;;;;1.27;0.68;;;;;;;14.33;32.43;97293.53;5150672;27;20023;-62
2022/01/18 05:31:17;;;;;;;1.98;1.23;;;;;;;14.35;32.77;97307.41;5150990;27;20112;-62
2022/01/18 05:33:46;;;;;;;1.80;0.90;;;;;;;14.37;32.76;97317.03;5150920;27;20029;-62
2022/01/18 05:36:12;;;;;;;2.05;0.70;;;;;;;14.27;32.62;97312.09;5146374;27;20019;-62
2022/01/18 05:38:38;;;;;;;1.80;0.68;;;;;;;14.25;32.58;97322.94;5139399;27;20145;-62
2022/01/18 05:41:08;;;;;;;1.15;0.73;;;;;;;14.25;32.61;97330.13;5150683;27;20190;-62
2022/01/18 05:43:35;;;;;;;1.70;0.88;;;;;;;14.21;32.44;97339.50;5149940;27;20232;-62
2022/01/18 05:46:01;;;;;;;1.30;0.75;;;;;;;14.18;32.79;97341.53;5150313;27;20030;-61
2022/01/18 05:48:27;;;;;;;1.25;0.80;;;;;;;14.19;32.59;97355.63;5150638;27;20030;-62
2022/01/18 05:50:59;;;;;;;1.10;0.90;;;;;;;14.13;32.55;97361.75;5150585;27;20038;-62
2022/01/18 05:53:28;;;;;;;0.88;0.70;;;;;;;14.09;32.58;97363.16;5150529;27;20014;-62
2022/01/18 05:55:54;;;;;;;1.45;0.80;;;;;;;14.01;32.83;97362.34;5150367;27;20034;-63
2022/01/18 05:58:19;;;;;;;1.60;1.45;;;;;;;13.99;32.60;97377.66;5150278;27;20018;-62
2022/01/18 06:00:52;;;;;;;1.00;0.60;;;;;;;13.97;32.49;97389.50;5150431;27;20143;-62
2022/01/18 06:03:26;;;;;;;2.78;0.98;;;;;;;13.91;32.77;97391.09;5150556;27;20179;-61
2022/01/18 06:08:36;;;;;;;1.98;0.70;;;;;;;13.83;32.69;97393.91;5150327;27;20030;-62
2022/01/18 06:11:01;;;;;;;1.10;0.80;;;;;;;13.81;32.62;97403.91;5150272;27;20014;-62
2022/01/18 06:13:28;;;;;;;1.58;0.80;;;;;;;13.82;32.70;97409.03;5150068;27;20184;-62
2022/01/18 06:15:54;;;;;;;1.52;0.85;;;;;;;13.83;32.65;97415.19;5149059;27;20023;-63
2022/01/18 06:18:20;;;;;;;2.17;0.85;;;;;;;13.80;32.46;97429.69;5129433;28;20045;-62
2022/01/18 06:20:45;;;;;;;1.90;0.90;;;;;;;13.73;32.78;97434.94;5129370;28;20019;-61
2022/01/18 06:23:13;;;;;;;1.30;0.80;;;;;;;13.71;32.61;97438.81;5129349;28;20023;-62
2022/01/18 06:25:39;;;;;;;1.98;1.17;;;;;;;13.68;32.79;97441.84;5129671;28;20166;-62
2022/01/18 06:28:05;;;;;;;1.30;0.77;;;;;;;13.66;32.59;97439.38;5129264;28;20019;-63
2022/01/18 06:30:30;;;;;;;1.65;0.98;;;;;;;13.63;32.64;97450.38;5129300;28;20074;-62
2022/01/18 06:32:56;;;;;;;0.82;0.60;;;;;;;13.60;32.65;97439.31;5129133;28;20219;-62
2022/01/18 06:35:21;;;;;;;2.88;0.80;;;;;;;13.58;32.80;97452.81;5129171;28;20019;-62
2022/01/18 06:37:47;;;;;;;1.73;1.00;;;;;;;13.56;32.89;97476.09;5129099;28;20026;-62
2022/01/18 06:40:13;;;;;;;1.30;0.70;;;;;;;13.57;32.42;97472.44;5128916;28;20051;-62
2022/01/18 06:42:39;;;;;;;1.80;0.80;;;;;;;13.57;32.58;97483.88;5129022;28;20082;-62
2022/01/18 06:45:06;;;;;;;1.42;0.70;;;;;;;13.53;32.47;97487.09;5129012;28;20027;-62
2022/01/18 06:47:31;;;;;;;1.30;0.70;;;;;;;13.52;32.62;97496.91;5128812;28;20027;-63
2022/01/18 06:49:57;;;;;;;2.25;0.73;;;;;;;13.52;32.59;97504.06;5128754;28;20022;-62
2022/01/18 06:52:22;;;;;;;7.80;2.58;;;;;;;13.50;32.26;97514.88;5128721;28;20152;-62
2022/01/18 06:54:48;;;;;;;2.08;0.65;;;;;;;13.43;32.37;97513.97;5128884;28;20046;-62
2022/01/18 06:57:13;;;;;;;2.60;0.60;;;;;;;13.38;32.42;97522.50;5128654;28;20019;-61
2022/01/18 06:59:39;;;;;;;4.05;0.85;;;;;;;13.36;32.61;97516.53;5128662;28;20026;-62
2022/01/18 07:02:05;;;;;;;2.20;0.60;;;;;;;13.38;32.53;97525.16;5128601;28;20019;-63
2022/01/18 07:04:31;;;;;;;2.03;0.70;;;;;;;13.36;32.02;97535.13;5128653;28;20079;-63
2022/01/18 07:06:57;;;;;;;1.48;0.77;;;;;;;13.36;32.10;97542.28;5139121;27;20029;-63
2022/01/18 07:09:23;;;;;;;2.50;0.60;;;;;;;13.31;32.61;97542.81;5149196;27;20035;-63
2022/01/18 07:11:54;;;;;;;1.30;0.68;;;;;;;13.31;32.67;97544.69;5148686;27;20015;-63
2022/01/18 07:14:20;;;;;;;2.47;0.55;;;;;;;13.32;32.21;97560.41;5149379;27;20011;-63
2022/01/18 07:16:46;;;;;;;1.60;0.98;;;;;;;13.35;32.30;97570.66;5147142;27;20019;-62
2022/01/18 07:19:12;;;;;;;0.70;0.57;;;;;;;13.37;32.36;97576.63;5148930;27;20105;-63
2022/01/18 07:21:38;;;;;;;2.13;0.80;;;;;;;13.35;32.39;97586.59;5148956;27;20215;-63
2022/01/18 07:24:06;;;;;;;2.20;0.90;;;;;;;13.37;32.36;97591.75;5148912;27;20011;-63
2022/01/18 07:26:32;;;;;;;2.42;0.82;;;;;;;13.35;32.15;97602.53;5148924;27;20011;-63
2022/01/18 07:28:59;;;;;;;0.65;0.60;;;;;;;13.36;31.87;97606.84;5148545;27;20011;-63
2022/01/18 07:31:24;;;;;;;1.55;0.70;;;;;;;13.34;31.81;97614.19;5150967;27;20028;-63
2022/01/18 07:33:50;;;;;;;0.98;0.75;;;;;;;13.33;32.28;97609.06;5163141;27;20074;-63
2022/01/18 07:36:15;;;;;;;0.60;0.60;;;;;;;13.33;31.92;97614.38;5148792;27;20026;-63
2022/01/18 07:38:41;;;;;;;1.58;0.90;;;;;;;13.34;32.05;97624.00;5148740;27;20060;-63
2022/01/18 07:41:06;;;;;;;1.55;0.95;;;;;;;13.35;31.90;97639.72;5148271;27;20102;-63
2022/01/18 07:43:32;;;;;;;1.08;0.80;;;;;;;13.33;31.98;97648.91;5148654;28;20011;-64
2022/01/18 07:45:57;;;;;;;1.50;0.80;;;;;;;13.32;31.60;97649.91;5148440;28;20041;-63
2022/01/18 07:48:24;;;;;;;1.80;0.82;;;;;;;13.31;31.69;97665.00;5148366;28;20095;-63
2022/01/18 07:50:57;;;;;;;1.40;0.90;;;;;;;13.31;31.86;97658.88;5148725;28;20056;-62
2022/01/18 07:53:22;;;;;;;1.85;0.93;;;;;;;13.33;31.69;97673.63;5148594;28;20031;-61
2022/01/18 07:55:48;;;;;;;2.35;0.77;;;;;;;13.35;31.67;97679.56;5147995;28;20121;-61
2022/01/18 07:58:14;;;;;;;1.52;0.77;;;;;;;13.36;31.45;97686.53;5148223;28;20167;-62
2022/01/18 08:00:39;;;;;;;1.27;1.15;;;;;;;13.38;31.32;97689.03;5148452;28;20015;-61
2022/01/18 08:03:05;;;;;;;1.30;0.60;;;;;;;13.38;31.36;97692.50;5148450;28;20228;-63
2022/01/18 08:05:30;;;;;;;1.33;0.80;;;;;;;13.37;31.23;97712.09;5148175;28;20071;-63
2022/01/18 08:07:56;;;;;;;1.20;0.82;;;;;;;13.37;31.37;97711.28;5148166;28;20011;-63
2022/01/18 08:10:23;;;;;;;1.15;0.65;;;;;;;13.37;30.95;97721.91;5130567;28;20053;-63
2022/01/18 08:12:49;;;;;;;2.25;0.70;;;;;;;13.36;31.01;97730.88;5147379;28;20263;-61
2022/01/18 08:15:18;;;;;;;2.83;0.70;;;;;;;13.37;30.77;97728.03;5148200;28;20011;-64
2022/01/18 08:17:46;;;;;;;5.07;0.60;;;;;;;13.39;31.15;97738.47;5148100;28;20011;-61
2022/01/18 08:20:13;;;;;;;1.52;0.73;;;;;;;13.39;30.56;97747.28;5147999;28;20099;-62
2022/01/18 08:22:46;;;;;;;1.73;0.80;;;;;;;13.33;30.70;97752.50;5149662;27;20086;-63
2022/01/18 08:25:14;;;;;;;4.25;0.90;;;;;;;13.33;30.98;97755.97;5152327;27;20011;-62
2022/01/18 08:27:41;;;;;;;3.08;0.88;;;;;;;13.36;30.61;97757.47;5151862;27;20022;-62
2022/01/18 08:30:10;;;;;;;1.35;0.85;;;;;;;13.33;30.52;97769.25;5152145;27;20240;-63
2022/01/18 08:32:36;;;;;;;1.65;1.38;;;;;;;13.35;30.29;97772.56;5152113;27;20019;-62
2022/01/18 08:35:02;;;;;;;1.83;0.80;;;;;;;13.39;30.72;97784.47;5152173;27;20015;-62
2022/01/18 08:37:28;;;;;;;1.25;0.63;;;;;;;13.42;30.37;97786.81;5152037;27;20007;-62
2022/01/18 08:39:53;;;;;;;0.95;0.57;;;;;;;13.50;30.37;97801.84;5151320;27;20060;-62
2022/01/18 08:42:19;;;;;;;0.80;0.50;;;;;;;13.48;30.55;97801.19;5151378;27;20027;-61
2022/01/18 08:44:45;;;;;;;1.73;0.90;;;;;;;13.56;30.09;97803.75;5151295;27;20082;-62
2022/01/18 08:47:12;;;;;;;1.10;0.70;;;;;;;13.65;30.18;97815.09;5151540;27;20018;-62
2022/01/18 08:49:38;;;;;;;1.25;0.63;;;;;;;13.75;29.91;97812.19;5151828;27;20011;-62
2022/01/18 08:52:03;;;;;;;3.20;0.82;;;;;;;13.82;30.11;97820.25;5152009;27;20033;-62
2022/01/18 08:54:29;;;;;;;1.77;1.17;;;;;;;13.93;29.80;97826.94;5151321;27;20007;-62
2022/01/18 08:56:55;;;;;;;1.60;0.57;;;;;;;13.98;29.71;97825.38;5151152;27;20022;-62
2022/01/18 08:59:21;;;;;;;1.13;1.02;;;;;;;14.06;29.86;97832.41;5151424;27;20185;-62
2022/01/18 09:01:47;;;;;;;1.70;0.80;;;;;;;14.09;29.58;97837.38;5151526;27;20018;-61
2022/01/18 09:04:13;;;;;;;1.52;1.10;;;;;;;14.05;29.51;97833.44;5151691;27;20236;-62
2022/01/18 09:06:38;;;;;;;1.05;0.50;;;;;;;13.92;29.47;97846.56;5151476;27;20154;-62
2022/01/18 09:09:05;;;;;;;1.50;0.98;;;;;;;13.78;29.49;97849.03;5151426;27;20026;-62
2022/01/18 09:11:31;;;;;;;1.58;0.75;;;;;;;13.81;29.55;97850.50;5151445;27;20037;-62
2022/01/18 09:13:57;;;;;;;1.48;0.80;;;;;;;13.84;29.46;97858.09;5151288;27;20011;-62
2022/01/18 09:16:23;;;;;;;3.08;0.80;;;;;;;13.76;29.38;97869.66;5146263;27;20023;-62
2022/01/18 09:18:50;;;;;;;1.08;0.63;;;;;;;13.73;29.33;97865.53;5130679;28;20022;-61
2022/01/18 09:21:18;;;;;;;1.95;0.80;;;;;;;13.78;29.46;97874.78;5130593;28;20004;-61
2022/01/18 09:23:44;;;;;;;1.83;0.90;;;;;;;13.77;29.18;97875.78;5130404;28;20016;-62
2022/01/18 09:26:09;;;;;;;0.95;0.63;;;;;;;13.69;29.47;97890.81;5130512;28;20008;-62
2022/01/18 09:28:36;;;;;;;1.58;0.90;;;;;;;13.69;29.34;97890.81;5130341;28;20082;-62
2022/01/18 09:31:02;;;;;;;2.72;0.80;;;;;;;13.75;29.43;97896.44;5130732;28;20015;-62
2022/01/18 09:33:27;;;;;;;3.33;0.60;;;;;;;13.75;29.21;97912.38;5129810;28;20076;-62
2022/01/18 09:35:53;;;;;;;1.13;0.70;;;;;;;13.81;29.41;97922.25;5130216;28;20035;-63
2022/01/18 09:38:19;;;;;;;4.47;1.08;;;;;;;13.89;28.95;97922.19;5130098;28;20011;-63
2022/01/18 09:40:45;;;;;;;1.48;1.00;;;;;;;14.01;28.85;97931.38;5129887;28;20031;-63
2022/01/18 09:43:14;;;;;;;1.20;0.77;;;;;;;14.06;28.81;97937.97;5130045;28;20131;-63
2022/01/18 09:45:42;;;;;;;2.15;0.88;;;;;;;14.02;28.86;97942.81;5130123;28;20015;-63
2022/01/18 09:48:09;;;;;;;1.02;0.73;;;;;;;14.09;28.73;97945.56;5129916;28;20027;-63
2022/01/18 09:50:37;;;;;;;0.88;0.73;;;;;;;14.16;28.65;97952.66;5130088;28;20014;-63
2022/01/18 09:53:06;;;;;;;0.95;0.73;;;;;;;14.13;28.71;97955.66;5129692;28;20037;-63
2022/01/18 09:55:33;;;;;;;1.17;0.80;;;;;;;14.04;28.55;97970.88;5129822;28;20020;-63
2022/01/18 09:58:00;;;;;;;1.05;0.75;;;;;;;13.99;28.62;97986.56;5129815;28;20246;-63
2022/01/18 10:00:29;;;;;;;2.30;0.80;;;;;;;13.97;28.73;97991.25;5129759;28;20144;-62
2022/01/18 10:02:54;;;;;;;2.70;0.70;;;;;;;13.94;28.64;98004.88;5129637;28;20042;-62
2022/01/18 10:05:28;;;;;;;1.67;0.82;;;;;;;13.89;28.56;98000.13;5130552;27;20008;-61
2022/01/18 10:07:57;;;;;;;1.30;0.70;;;;;;;13.86;28.48;98003.13;5150239;27;20034;-61
2022/01/18 10:10:57;;;;;;;2.13;0.63;;;;;;;13.84;28.42;98013.13;5150269;27;20015;-62
2022/01/18 10:13:25;;;;;;;1.45;0.73;;;;;;;13.92;28.58;98028.16;5136607;27;20027;-62
2022/01/18 10:15:57;;;;;;;1.77;0.80;;;;;;;13.99;28.43;98018.47;5150235;27;20128;-61
2022/01/18 10:18:37;;;;;;;1.45;0.70;;;;;;;14.05;28.72;98032.88;5149987;27;20248;-61
2022/01/18 10:21:06;;;;;;;1.15;0.70;;;;;;;14.04;28.14;98042.69;5149952;27;20232;-61
2022/01/18 10:23:32;;;;;;;1.30;0.60;;;;;;;14.10;28.50;98046.47;5149733;27;20015;-62
2022/01/18 10:26:15;;;;;;;1.73;1.02;;;;;;;14.09;28.11;98051.97;5149870;27;20019;-62
2022/01/18 10:28:41;;;;;;;1.58;0.90;;;;;;;13.99;28.66;98060.19;5149749;27;20023;-62
2022/01/18 10:31:24;;;;;;;1.40;0.82;;;;;;;14.03;28.63;98059.69;5149883;27;20034;-61
2022/01/18 10:34:09;;;;;;;3.10;0.82;;;;;;;14.07;28.52;98068.13;5149983;27;20063;-62
2022/01/18 10:37:00;;;;;;;1.13;0.68;;;;;;;14.17;28.40;98079.31;5149630;27;20052;-61
2022/01/18 10:39:34;;;;;;;1.35;0.70;;;;;;;14.23;28.45;98079.63;5149524;27;20035;-62
2022/01/18 10:42:02;;;;;;;0.85;0.63;;;;;;;14.24;28.36;98098.03;5149568;27;20015;-61
2022/01/18 10:44:30;;;;;;;1.77;0.80;;;;;;;14.28;28.51;98095.84;5148789;27;20015;-62
2022/01/18 10:46:58;;;;;;;2.08;0.85;;;;;;;14.50;28.32;98089.66;5148783;27;20021;-61
2022/01/18 10:49:47;;;;;;;1.20;0.80;;;;;;;14.87;28.36;98100.44;5149072;27;20015;-62
2022/01/18 10:52:22;;;;;;;1.95;0.88;;;;;;;15.19;28.12;98110.88;5149366;27;20026;-62
2022/01/18 10:54:54;;;;;;;1.35;0.68;;;;;;;15.44;27.99;98108.72;5149594;27;20034;-63
2022/01/18 10:57:22;;;;;;;1.75;0.93;;;;;;;15.65;27.54;98117.78;5149399;27;20007;-62
2022/01/18 10:59:49;;;;;;;1.30;0.98;;;;;;;15.84;27.36;98121.66;5148720;27;20128;-62
2022/01/18 11:02:20;;;;;;;2.35;0.82;;;;;;;15.95;27.44;98121.19;5161641;27;20037;-62
2022/01/18 11:04:56;;;;;;;1.67;0.90;;;;;;;16.07;27.53;98132.19;5130837;27;20239;-63
2022/01/18 11:07:29;;;;;;;1.55;1.08;;;;;;;16.17;27.68;98135.34;5149037;27;20048;-62
2022/01/18 11:10:05;;;;;;;0.90;0.75;;;;;;;16.28;27.57;98141.19;5149156;27;20015;-62
2022/01/18 11:12:41;;;;;;;0.65;0.50;;;;;;;16.38;27.65;98143.53;5148912;27;20081;-62
2022/01/18 11:15:15;;;;;;;1.08;0.40;;;;;;;16.47;27.56;98158.38;5128333;28;20031;-62
2022/01/18 11:17:43;;;;;;;1.27;0.57;;;;;;;16.54;27.12;98166.47;5144364;27;20119;-62
2022/01/18 11:20:09;;;;;;;1.10;0.50;;;;;;;16.63;27.31;98171.44;5148767;27;20026;-62
2022/01/18 11:22:36;;;;;;;2.78;1.00;;;;;;;16.70;26.90;98182.19;5148763;27;20078;-61
2022/01/18 11:25:03;;;;;;;0.68;0.63;;;;;;;16.76;27.03;98197.44;5149145;27;20253;-64
2022/01/18 11:27:30;;;;;;;5.90;0.93;;;;;;;16.80;27.30;98197.06;5148331;27;20046;-69
2022/01/18 11:29:57;;;;;;;4.25;0.80;;;;;;;16.80;27.74;98208.56;5148295;27;20011;-66
2022/01/18 11:32:27;;;;;;;3.17;0.73;;;;;;;16.71;28.15;98210.53;5147553;27;20131;-65
2022/01/18 11:35:14;;;;;;;2.35;0.70;;;;;;;16.59;27.92;98212.94;5148422;27;20142;-65
2022/01/18 11:37:57;;;;;;;0.95;0.50;;;;;;;16.52;28.25;98211.22;5148189;27;20091;-66
2022/01/18 11:40:25;;;;;;;2.25;0.80;;;;;;;16.50;28.21;98219.41;5147334;27;20046;-64
2022/01/18 11:42:54;;;;;;;1.30;0.77;;;;;;;16.48;28.49;98232.13;5148175;27;20054;-66
2022/01/18 11:45:25;;;;;;;2.80;0.75;;;;;;;16.48;28.44;98234.78;5147981;28;20129;-62
2022/01/18 11:48:19;;;;;;;2.35;0.60;;;;;;;16.47;28.64;98251.81;5147546;27;20244;-63
2022/01/18 11:50:46;;;;;;;2.10;0.90;;;;;;;16.48;28.52;98253.47;5140303;28;20225;-64
2022/01/18 11:53:25;;;;;;;3.03;1.08;;;;;;;16.50;28.28;98259.44;5147795;28;20068;-65
2022/01/18 11:55:53;;;;;;;1.27;0.73;;;;;;;16.48;28.39;98265.00;5147960;27;20015;-67
2022/01/18 11:58:19;;;;;;;5.57;0.70;;;;;;;16.47;28.43;98279.34;5152300;27;20030;-63
2022/01/18 12:00:52;;;;;;;2.55;0.98;;;;;;;16.49;28.58;98281.81;5151853;27;20136;-62
2022/01/18 12:03:25;;;;;;;2.08;0.70;;;;;;;16.52;28.50;98289.47;5151358;27;20086;-63
2022/01/18 12:06:11;;;;;;;6.30;1.20;;;;;;;16.53;29.00;98298.31;5154353;27;20023;-62
2022/01/18 12:08:42;;;;;;;2.65;1.83;;;;;;;16.56;29.22;98300.59;5142833;27;20064;-63
2022/01/18 12:11:12;;;;;;;4.13;1.30;;;;;;;16.57;29.16;98310.25;5151878;27;20011;-64
2022/01/18 12:13:44;;;;;;;4.43;1.80;;;;;;;16.58;29.33;98310.06;5151174;27;20027;-63
2022/01/18 12:16:48;;;;;;;2.08;1.08;;;;;;;16.60;29.57;98324.06;5147401;27;20045;-63
2022/01/18 12:19:14;;;;;;;4.53;1.10;;;;;;;16.63;29.60;98326.34;5136272;27;20070;-64
2022/01/18 12:21:45;;;;;;;1.83;1.00;;;;;;;16.68;29.46;98328.47;5151623;27;20042;-64
2022/01/18 12:24:19;;;;;;;4.40;1.55;;;;;;;16.70;29.77;98322.91;5151638;27;20019;-62
2022/01/18 12:26:48;;;;;;;9.02;2.25;;;;;;;16.73;29.70;98331.38;5151461;27;20019;-62
2022/01/18 12:34:28;;;;;;;15.05;6.65;;;;;;;16.77;30.77;98354.03;5151900;27;20144;-63
2022/01/18 12:37:08;;;;;;;24.10;6.90;;;;;;;16.81;31.17;98365.16;5152023;27;20277;-63
2022/01/18 12:49:16;;;;;;;32.00;8.32;;;;;;;16.76;31.62;98384.41;5187542;27;20399;-64
2022/01/18 12:51:43;;;;;;;32.53;9.30;;;;;;;16.81;31.80;98391.03;5166725;27;20228;-63
2022/01/18 12:54:08;;;;;;;35.95;10.20;;;;;;;16.83;32.54;98397.84;5145769;27;20043;-63
2022/01/18 12:56:34;;;;;;;29.27;8.48;;;;;;;16.86;32.29;98408.16;5145909;28;20019;-64
2022/01/18 12:59:04;;;;;;;22.45;6.47;;;;;;;16.89;32.64;98410.47;5145795;28;20019;-62
2022/01/18 13:01:31;;;;;;;24.17;7.05;;;;;;;16.93;32.21;98413.56;5145899;28;20023;-63
2022/01/18 13:03:57;;;;;;;21.90;6.65;;;;;;;16.96;32.46;98423.91;5145583;27;20042;-62
2022/01/18 13:06:25;;;;;;;19.08;6.28;;;;;;;16.96;32.45;98429.25;5145615;28;20019;-62
2022/01/18 13:08:59;;;;;;;23.90;7.43;;;;;;;16.95;32.40;98450.81;5145572;27;20053;-63